Time;durP1;ratioP1;P1;durP2;ratioP2;P2;SDS_P1;SDS_P2;PMS_P1;PMS_P2;Temp;Humidity;BMP_temperature;BMP_pressure;BME280_temperature;BME280_humidity;BME280_pressure;Samples;Min_cycle;Max_cycle;Signal;HPM_P1;HPM_P2
2024/01/04 00:02:31;;;;;;;4.77;0.30;;;6.60;99.90;;;;;;5111737;27;20478;-92
2024/01/04 00:04:57;;;;;;;3.78;0.20;;;6.60;99.90;;;;;;5130964;27;20387;-90
2024/01/04 00:07:23;;;;;;;1.87;0.10;;;6.60;99.90;;;;;;5113268;27;20527;-94
2024/01/04 00:09:51;;;;;;;2.20;0.10;;;6.70;99.90;;;;;;5113475;27;20590;-89
2024/01/04 00:12:17;;;;;;;3.17;0.20;;;6.70;99.90;;;;;;5113240;27;20490;-91
2024/01/04 00:14:43;;;;;;;4.80;0.10;;;6.50;99.90;;;;;;5129378;27;20394;-90
2024/01/04 00:17:09;;;;;;;3.93;0.20;;;6.50;99.90;;;;;;5128191;27;20498;-89
2024/01/04 00:19:34;;;;;;;3.33;0.25;;;6.50;99.90;;;;;;5133586;27;20496;-89
2024/01/04 00:22:00;;;;;;;2.22;0.20;;;6.50;99.90;;;;;;5133752;27;20441;-91
2024/01/04 00:24:25;;;;;;;3.10;0.20;;;6.80;99.90;;;;;;5132972;27;20417;-92
2024/01/04 00:26:51;;;;;;;3.63;0.13;;;6.70;99.90;;;;;;5133861;27;20413;-92
2024/01/04 00:29:17;;;;;;;2.28;0.10;;;6.60;99.90;;;;;;5133359;27;20421;-91
2024/01/04 00:31:43;;;;;;;3.13;0.20;;;6.50;99.90;;;;;;5133025;27;20401;-92
2024/01/04 00:34:08;;;;;;;3.77;0.20;;;6.50;99.90;;;;;;5128444;27;20407;-91
2024/01/04 00:36:34;;;;;;;4.30;0.30;;;6.50;99.90;;;;;;5111779;27;20410;-90
2024/01/04 00:39:00;;;;;;;3.38;0.20;;;6.70;99.90;;;;;;5113276;27;20750;-90
2024/01/04 00:41:26;;;;;;;3.83;0.20;;;6.40;99.90;;;;;;5111801;27;20394;-90
2024/01/04 00:43:51;;;;;;;2.95;0.13;;;6.50;99.90;;;;;;5113132;27;20410;-93
2024/01/04 00:46:17;;;;;;;3.33;0.20;;;6.60;99.90;;;;;;5112304;27;20411;-94
2024/01/04 00:48:43;;;;;;;4.93;0.40;;;6.40;99.90;;;;;;5112532;27;20411;-91
2024/01/04 00:51:09;;;;;;;2.45;0.20;;;6.20;99.90;;;;;;5130113;27;20409;-92
2024/01/04 00:53:35;;;;;;;3.92;0.30;;;6.30;99.90;;;;;;5111347;27;20489;-92
2024/01/04 00:56:00;;;;;;;4.10;0.20;;;6.70;99.90;;;;;;5112963;27;20761;-94
2024/01/04 00:58:26;;;;;;;3.97;0.20;;;6.30;99.90;;;;;;5111724;27;20882;-94
2024/01/04 01:00:52;;;;;;;3.47;0.20;;;6.30;99.90;;;;;;5112800;27;21028;-91
2024/01/04 01:03:17;;;;;;;2.90;0.20;;;6.30;99.90;;;;;;5111681;27;20774;-93
2024/01/04 01:05:43;;;;;;;2.50;0.20;;;6.30;99.90;;;;;;5112906;27;20414;-90
2024/01/04 01:08:10;;;;;;;3.35;0.20;;;6.50;99.90;;;;;;5129283;27;20427;-90
2024/01/04 01:10:35;;;;;;;3.28;0.30;;;6.20;99.90;;;;;;5111681;27;20399;-92
2024/01/04 01:13:09;;;;;;;3.23;0.13;;;6.30;99.90;;;;;;5112794;27;20398;-93
2024/01/04 01:15:34;;;;;;;4.50;0.20;;;6.20;99.90;;;;;;5109902;27;20410;-93
2024/01/04 01:18:02;;;;;;;3.00;0.20;;;6.40;99.90;;;;;;5112699;27;20402;-89
2024/01/04 01:20:28;;;;;;;2.85;0.30;;;6.20;99.90;;;;;;5111539;27;20411;-92
2024/01/04 01:22:54;;;;;;;3.90;0.20;;;6.20;99.90;;;;;;5111907;27;20463;-92
2024/01/04 01:25:19;;;;;;;4.03;0.20;;;6.10;99.90;;;;;;5111598;27;20403;-90
2024/01/04 01:27:45;;;;;;;2.10;0.20;;;6.10;99.90;;;;;;5111515;27;20822;-94
2024/01/04 01:30:11;;;;;;;4.03;0.40;;;6.10;99.90;;;;;;5111962;27;20430;-90
2024/01/04 01:32:36;;;;;;;4.63;0.20;;;6.10;99.90;;;;;;5111126;27;20438;-91
2024/01/04 01:35:02;;;;;;;2.55;0.30;;;6.10;99.90;;;;;;5112380;27;20398;-93
2024/01/04 01:37:28;;;;;;;2.58;0.20;;;6.10;99.90;;;;;;5115835;27;20405;-92
2024/01/04 01:39:53;;;;;;;3.17;0.20;;;6.20;99.90;;;;;;5150301;27;20393;-91
2024/01/04 01:42:20;;;;;;;2.77;0.10;;;5.70;99.90;;;;;;5132024;27;20393;-91
2024/01/04 01:44:47;;;;;;;3.10;0.10;;;6.70;99.90;;;;;;5132355;27;20489;-91
2024/01/04 01:47:12;;;;;;;2.47;0.10;;;5.90;99.90;;;;;;5131850;27;20393;-90
2024/01/04 01:49:38;;;;;;;2.63;0.20;;;6.00;99.90;;;;;;5131310;27;20477;-91
2024/01/04 01:52:04;;;;;;;2.20;0.20;;;6.10;99.90;;;;;;5132342;27;20496;-91
2024/01/04 01:54:34;;;;;;;2.22;0.10;;;6.10;99.90;;;;;;5131087;27;20536;-95
2024/01/04 01:57:00;;;;;;;2.95;0.10;;;6.10;99.90;;;;;;5132386;27;20397;-93
2024/01/04 01:59:27;;;;;;;2.55;0.10;;;6.10;99.90;;;;;;5118933;27;20406;-91
2024/01/04 02:01:53;;;;;;;3.50;0.15;;;6.00;99.90;;;;;;5129006;27;20439;-93
2024/01/04 02:04:19;;;;;;;2.60;0.10;;;6.50;99.90;;;;;;5128507;27;20935;-94
2024/01/04 02:06:44;;;;;;;1.77;0.10;;;5.80;99.90;;;;;;5110721;27;20398;-94
2024/01/04 02:09:10;;;;;;;3.20;0.20;;;6.00;99.90;;;;;;5111637;27;21069;-92
2024/01/04 02:11:36;;;;;;;1.83;0.13;;;5.90;99.90;;;;;;5110251;27;20387;-92
2024/01/04 02:14:01;;;;;;;1.67;0.10;;;5.70;99.90;;;;;;5119575;27;20396;-94
2024/01/04 02:16:28;;;;;;;2.00;0.10;;;5.90;99.90;;;;;;5147658;27;20405;-92
2024/01/04 02:18:53;;;;;;;2.20;0.10;;;5.90;99.90;;;;;;5131838;27;20476;-93
2024/01/04 02:21:19;;;;;;;2.00;0.20;;;5.70;99.90;;;;;;5131292;27;20439;-91
2024/01/04 02:23:45;;;;;;;2.90;0.10;;;5.60;99.90;;;;;;5130990;27;20975;-93
2024/01/04 02:26:10;;;;;;;4.45;0.22;;;5.50;99.90;;;;;;5131162;27;20457;-92
2024/01/04 02:28:36;;;;;;;2.03;0.20;;;5.50;99.90;;;;;;5130931;27;20428;-94
2024/01/04 02:31:02;;;;;;;2.17;0.20;;;5.40;99.90;;;;;;5131496;27;20404;-93
2024/01/04 02:33:27;;;;;;;2.22;0.20;;;5.30;99.90;;;;;;5128089;27;20402;-91
2024/01/04 02:35:53;;;;;;;4.50;0.40;;;5.60;99.90;;;;;;5128482;27;20958;-94
2024/01/04 02:38:19;;;;;;;2.40;0.20;;;5.30;99.90;;;;;;5109997;28;20411;-92
2024/01/04 02:40:46;;;;;;;2.07;0.10;;;5.30;99.90;;;;;;5111212;27;20452;-94
2024/01/04 02:43:12;;;;;;;1.60;0.10;;;5.90;99.90;;;;;;5110815;28;20426;-94
2024/01/04 02:45:38;;;;;;;2.90;0.20;;;5.30;99.90;;;;;;5093469;28;20394;-92
2024/01/04 02:48:04;;;;;;;1.98;0.20;;;5.20;99.90;;;;;;5111206;28;20472;-93
2024/01/04 02:50:31;;;;;;;2.00;0.15;;;5.20;99.90;;;;;;5109720;28;20921;-92
2024/01/04 02:52:57;;;;;;;3.85;0.30;;;5.30;99.90;;;;;;5111410;27;20407;-91
2024/01/04 02:55:23;;;;;;;2.00;0.20;;;5.70;99.90;;;;;;5109459;28;20481;-91
2024/01/04 02:57:48;;;;;;;2.67;0.20;;;5.10;99.90;;;;;;5110917;28;20490;-91
2024/01/04 03:00:17;;;;;;;2.07;0.20;;;5.40;99.90;;;;;;5110405;28;20402;-91
2024/01/04 03:02:43;;;;;;;3.33;0.40;;;5.10;99.90;;;;;;5110107;28;20479;-91
2024/01/04 03:05:09;;;;;;;4.17;0.30;;;5.10;99.90;;;;;;5127825;27;20391;-92
2024/01/04 03:07:34;;;;;;;2.13;0.20;;;5.10;99.90;;;;;;5122511;27;20401;-94
2024/01/04 03:10:01;;;;;;;3.53;0.38;;;5.20;99.90;;;;;;5131582;27;20887;-95
2024/01/04 03:12:27;;;;;;;4.82;0.32;;;5.30;99.90;;;;;;5130259;27;20565;-91
2024/01/04 03:14:53;;;;;;;7.17;0.40;;;5.20;99.90;;;;;;5131773;27;20476;-93
2024/01/04 03:17:18;;;;;;;2.85;0.20;;;4.90;99.90;;;;;;5130490;27;20424;-91
2024/01/04 03:19:44;;;;;;;3.43;0.20;;;5.00;99.90;;;;;;5148341;27;20492;-91
2024/01/04 03:22:09;;;;;;;4.07;0.20;;;5.10;99.90;;;;;;5111850;27;20403;-91
2024/01/04 03:24:35;;;;;;;3.70;0.20;;;4.90;99.90;;;;;;5109440;27;20405;-92
2024/01/04 03:27:01;;;;;;;4.90;0.30;;;4.90;99.90;;;;;;5110651;28;20398;-92
2024/01/04 03:29:26;;;;;;;3.63;0.30;;;4.80;99.90;;;;;;5108975;28;20426;-90
2024/01/04 03:31:52;;;;;;;4.25;0.30;;;5.00;99.90;;;;;;5110899;28;20909;-94
2024/01/04 03:34:18;;;;;;;2.93;0.20;;;4.70;99.90;;;;;;5109184;28;20415;-91
2024/01/04 03:36:43;;;;;;;3.47;0.20;;;4.70;99.90;;;;;;5110400;27;20781;-92
2024/01/04 03:39:09;;;;;;;2.83;0.20;;;4.70;99.90;;;;;;5113354;27;20398;-90
2024/01/04 03:41:34;;;;;;;1.92;0.20;;;4.80;99.90;;;;;;5130918;27;20399;-90
2024/01/04 03:44:00;;;;;;;2.43;0.20;;;4.90;99.90;;;;;;5114094;27;20407;-91
2024/01/04 03:46:26;;;;;;;3.10;0.20;;;4.90;99.90;;;;;;5129545;27;20536;-92
2024/01/04 03:48:51;;;;;;;2.95;0.20;;;4.70;99.90;;;;;;5114291;27;20453;-92
2024/01/04 03:51:17;;;;;;;2.50;0.30;;;4.90;99.90;;;;;;5112567;27;20399;-92
2024/01/04 03:53:43;;;;;;;1.87;0.10;;;4.90;99.90;;;;;;5113989;27;21041;-91
2024/01/04 03:56:09;;;;;;;2.78;0.35;;;4.80;99.90;;;;;;5112916;27;20533;-92
2024/01/04 03:58:35;;;;;;;3.80;0.30;;;4.80;99.90;;;;;;5113465;27;20403;-91
2024/01/04 04:01:03;;;;;;;3.42;0.20;;;4.90;99.90;;;;;;5113762;27;20398;-91
2024/01/04 04:03:29;;;;;;;3.80;0.20;;;4.70;99.90;;;;;;5112424;27;20915;-91
2024/01/04 04:05:55;;;;;;;4.05;0.35;;;4.70;99.90;;;;;;5113855;27;20486;-93
2024/01/04 04:08:20;;;;;;;2.80;0.20;;;4.70;99.90;;;;;;5112669;27;20422;-91
2024/01/04 04:10:46;;;;;;;3.37;0.33;;;4.90;99.90;;;;;;5114023;27;20495;-91
2024/01/04 04:13:12;;;;;;;2.90;0.20;;;4.80;99.90;;;;;;5129544;27;20403;-90
2024/01/04 04:15:37;;;;;;;3.58;0.20;;;4.80;99.90;;;;;;5113387;27;20398;-93
2024/01/04 04:18:03;;;;;;;2.63;0.30;;;4.90;99.90;;;;;;5113289;27;20501;-92
2024/01/04 04:20:29;;;;;;;2.67;0.20;;;4.80;99.90;;;;;;5114187;27;20403;-91
2024/01/04 04:22:55;;;;;;;2.53;0.20;;;4.80;99.90;;;;;;5133681;27;20408;-92
2024/01/04 04:25:21;;;;;;;1.73;0.10;;;4.80;99.90;;;;;;5132269;27;20442;-91
2024/01/04 04:27:47;;;;;;;1.80;0.13;;;4.70;99.90;;;;;;5134585;27;20895;-92
2024/01/04 04:30:12;;;;;;;1.80;0.10;;;4.90;99.90;;;;;;5132153;27;20971;-90
2024/01/04 04:32:38;;;;;;;3.42;0.20;;;4.60;99.90;;;;;;5133767;27;20767;-91
2024/01/04 04:35:04;;;;;;;3.38;0.20;;;4.40;99.90;;;;;;5133181;27;20404;-91
2024/01/04 04:37:30;;;;;;;3.67;0.40;;;4.50;99.90;;;;;;5133267;27;20516;-92
2024/01/04 04:39:55;;;;;;;2.60;0.10;;;4.80;99.90;;;;;;5133301;27;20396;-91
2024/01/04 04:42:21;;;;;;;3.27;0.40;;;4.50;99.90;;;;;;5132734;27;20397;-91
2024/01/04 04:44:47;;;;;;;2.63;0.10;;;4.40;99.90;;;;;;5134136;27;20397;-91
2024/01/04 04:47:12;;;;;;;3.03;0.20;;;4.50;99.90;;;;;;5131773;27;21029;-92
2024/01/04 04:49:38;;;;;;;3.90;0.50;;;4.40;99.90;;;;;;5132897;27;20473;-92
2024/01/04 04:52:04;;;;;;;3.63;0.20;;;4.20;99.90;;;;;;5132025;27;20484;-92
2024/01/04 04:54:30;;;;;;;2.30;0.20;;;4.40;99.90;;;;;;5134681;27;20412;-91
2024/01/04 04:56:56;;;;;;;2.83;0.30;;;4.50;99.90;;;;;;5129073;27;20410;-91
2024/01/04 04:59:22;;;;;;;4.05;0.20;;;4.40;99.90;;;;;;5128724;27;20403;-91
2024/01/04 05:01:48;;;;;;;4.10;0.30;;;4.70;99.90;;;;;;5112822;27;20466;-92
2024/01/04 05:04:13;;;;;;;3.53;0.20;;;4.50;99.90;;;;;;5128284;27;20401;-91
2024/01/04 05:06:39;;;;;;;2.57;0.20;;;4.60;99.90;;;;;;5112806;27;20403;-92
2024/01/04 05:09:07;;;;;;;4.43;0.23;;;4.80;99.90;;;;;;5115279;27;20421;-91
2024/01/04 05:11:33;;;;;;;3.50;0.20;;;4.50;99.90;;;;;;5132959;27;21090;-91
2024/01/04 05:13:58;;;;;;;4.28;0.30;;;4.60;99.90;;;;;;5132046;27;20389;-90
2024/01/04 05:16:24;;;;;;;3.33;0.30;;;4.60;99.90;;;;;;5132166;27;20405;-92
2024/01/04 05:18:50;;;;;;;4.22;0.20;;;4.60;99.90;;;;;;5132532;27;20449;-92
2024/01/04 05:21:15;;;;;;;2.83;0.20;;;4.70;99.90;;;;;;5131303;27;20393;-91
2024/01/04 05:23:41;;;;;;;2.97;0.10;;;4.60;99.90;;;;;;5131954;27;20412;-91
2024/01/04 05:26:07;;;;;;;2.70;0.28;;;4.90;99.90;;;;;;5110249;27;20403;-92
2024/01/04 05:28:32;;;;;;;2.88;0.20;;;4.60;99.90;;;;;;5112129;27;20419;-91
2024/01/04 05:30:58;;;;;;;2.97;0.20;;;4.60;99.90;;;;;;5110649;27;20547;-91
2024/01/04 05:33:24;;;;;;;1.97;0.20;;;4.60;99.90;;;;;;5111839;27;20456;-92
2024/01/04 05:35:51;;;;;;;2.55;0.20;;;4.60;99.90;;;;;;5111199;27;20493;-92
2024/01/04 05:38:16;;;;;;;2.90;0.50;;;4.70;99.90;;;;;;5110752;27;20455;-91
2024/01/04 05:40:42;;;;;;;2.83;0.10;;;4.70;99.90;;;;;;5112204;27;20415;-90
2024/01/04 05:43:08;;;;;;;3.33;0.20;;;4.50;99.90;;;;;;5110625;27;20438;-92
2024/01/04 05:45:33;;;;;;;3.07;0.20;;;4.50;99.90;;;;;;5111851;27;20894;-92
2024/01/04 05:47:59;;;;;;;4.95;0.30;;;4.40;99.90;;;;;;5109317;27;20498;-92
2024/01/04 05:50:25;;;;;;;3.35;0.30;;;4.50;99.90;;;;;;5111325;27;20399;-92
2024/01/04 05:52:50;;;;;;;4.28;0.20;;;4.40;99.90;;;;;;5110924;27;20438;-90
2024/01/04 05:55:16;;;;;;;3.33;0.20;;;4.40;99.90;;;;;;5123667;27;20401;-92
2024/01/04 05:57:43;;;;;;;3.17;0.20;;;4.60;99.90;;;;;;5114901;27;20516;-92
2024/01/04 06:00:10;;;;;;;2.38;0.20;;;4.50;99.90;;;;;;5108401;28;20459;-92
2024/01/04 06:02:35;;;;;;;3.38;0.20;;;4.30;99.90;;;;;;5110362;27;20403;-92
2024/01/04 06:05:01;;;;;;;4.38;0.30;;;4.40;99.90;;;;;;5108400;27;20402;-92
2024/01/04 06:07:27;;;;;;;2.77;0.30;;;4.30;99.90;;;;;;5111437;27;20410;-93
2024/01/04 06:09:52;;;;;;;4.33;0.20;;;4.30;99.90;;;;;;5109549;27;20419;-91
2024/01/04 06:12:18;;;;;;;4.03;0.20;;;4.60;99.90;;;;;;5109072;27;20883;-91
2024/01/04 06:14:44;;;;;;;1.98;0.20;;;4.30;99.90;;;;;;5110873;28;20387;-91
2024/01/04 06:17:09;;;;;;;4.07;0.40;;;4.70;99.90;;;;;;5110371;27;20403;-91
2024/01/04 06:19:35;;;;;;;3.80;0.20;;;4.20;99.90;;;;;;5128454;27;20429;-92
2024/01/04 06:22:01;;;;;;;3.47;0.30;;;4.40;99.90;;;;;;5109181;27;20421;-93
2024/01/04 06:24:26;;;;;;;5.05;0.20;;;4.20;99.90;;;;;;5111052;28;20406;-92
2024/01/04 06:26:52;;;;;;;3.77;0.30;;;4.50;99.90;;;;;;5109381;27;20399;-92
2024/01/04 06:29:19;;;;;;;2.63;0.20;;;4.10;99.90;;;;;;5110605;27;20423;-91
2024/01/04 06:31:44;;;;;;;2.60;0.40;;;4.00;99.90;;;;;;5109855;28;20398;-91
2024/01/04 06:34:10;;;;;;;4.32;0.32;;;3.80;99.90;;;;;;5110102;28;20398;-92
2024/01/04 06:36:36;;;;;;;4.00;0.45;;;4.30;99.90;;;;;;5110389;27;20446;-90
2024/01/04 06:39:02;;;;;;;3.83;0.30;;;3.90;99.90;;;;;;5109844;28;20387;-91
2024/01/04 06:41:29;;;;;;;4.38;0.30;;;4.30;99.90;;;;;;5125119;27;20397;-91
2024/01/04 06:43:56;;;;;;;8.80;0.50;;;3.90;99.90;;;;;;5123026;28;20396;-91
2024/01/04 06:46:22;;;;;;;2.92;0.30;;;3.90;99.90;;;;;;5135133;27;20460;-89
2024/01/04 06:48:47;;;;;;;3.05;0.30;;;3.60;99.90;;;;;;5109078;28;20827;-92
2024/01/04 06:51:13;;;;;;;3.08;0.32;;;3.90;99.90;;;;;;5110069;28;20402;-90
2024/01/04 06:53:42;;;;;;;3.13;0.50;;;3.70;99.90;;;;;;5127410;28;20885;-91
2024/01/04 06:56:07;;;;;;;3.00;0.40;;;3.80;99.90;;;;;;5109603;28;20485;-92
2024/01/04 06:58:33;;;;;;;3.67;0.30;;;4.00;99.90;;;;;;5111039;28;20399;-92
2024/01/04 07:00:59;;;;;;;4.30;0.45;;;3.80;99.90;;;;;;5108578;27;20915;-93
2024/01/04 07:03:25;;;;;;;4.75;0.40;;;3.60;99.90;;;;;;5110350;28;20395;-92
2024/01/04 07:05:51;;;;;;;4.30;0.40;;;3.60;99.90;;;;;;5108439;28;20406;-91
2024/01/04 07:08:16;;;;;;;5.22;0.60;;;3.60;99.90;;;;;;5127408;28;20933;-91
2024/01/04 07:10:42;;;;;;;4.20;0.40;;;3.60;99.90;;;;;;5109139;28;20415;-91
2024/01/04 07:13:08;;;;;;;3.37;0.30;;;3.50;99.90;;;;;;5111367;27;20885;-91
2024/01/04 07:15:34;;;;;;;3.70;0.40;;;3.80;99.90;;;;;;5114756;27;20398;-91
2024/01/04 07:17:59;;;;;;;5.00;0.40;;;3.50;99.90;;;;;;5112924;27;20383;-91
2024/01/04 07:20:25;;;;;;;4.78;0.40;;;3.40;99.90;;;;;;5114626;27;20449;-92
2024/01/04 07:22:53;;;;;;;3.85;0.40;;;3.40;99.90;;;;;;5112332;27;20900;-92
2024/01/04 07:25:19;;;;;;;3.83;0.50;;;3.60;99.90;;;;;;5122413;27;20401;-91
2024/01/04 07:27:45;;;;;;;4.40;0.30;;;3.50;99.90;;;;;;5133664;27;20488;-92
2024/01/04 07:30:11;;;;;;;4.67;0.40;;;3.40;99.90;;;;;;5126536;27;20418;-91
2024/01/04 07:32:37;;;;;;;5.90;0.50;;;3.40;99.90;;;;;;5113222;27;20391;-92
2024/01/04 07:35:05;;;;;;;2.95;0.35;;;3.30;99.90;;;;;;5111783;27;20414;-91
2024/01/04 07:37:30;;;;;;;4.82;0.40;;;3.30;99.90;;;;;;5113908;27;20493;-90
2024/01/04 07:39:56;;;;;;;5.97;0.47;;;3.20;99.90;;;;;;5112151;27;20506;-92
2024/01/04 07:42:22;;;;;;;2.85;0.40;;;3.50;99.90;;;;;;5113882;27;20483;-91
2024/01/04 07:44:48;;;;;;;3.63;0.80;;;3.10;99.90;;;;;;5112118;27;20434;-91
2024/01/04 07:47:14;;;;;;;5.03;0.85;;;3.10;99.90;;;;;;5113263;27;20414;-90
2024/01/04 07:49:39;;;;;;;5.35;0.75;;;2.80;99.90;;;;;;5111550;27;20490;-92
2024/01/04 07:52:05;;;;;;;4.90;0.40;;;3.30;99.90;;;;;;5112267;27;20414;-91
2024/01/04 07:54:31;;;;;;;5.20;0.50;;;3.10;99.90;;;;;;5112208;27;20403;-91
2024/01/04 07:56:57;;;;;;;4.68;0.40;;;2.90;99.90;;;;;;5112000;27;20390;-91
2024/01/04 07:59:23;;;;;;;5.43;0.50;;;2.90;99.90;;;;;;5112789;27;20776;-90
2024/01/04 08:01:49;;;;;;;8.48;0.82;;;2.80;99.90;;;;;;5111111;27;20489;-90
2024/01/04 08:04:15;;;;;;;5.32;0.60;;;3.00;99.90;;;;;;5112995;27;20405;-91
2024/01/04 08:06:40;;;;;;;5.67;0.70;;;2.80;99.90;;;;;;5112109;27;20944;-92
2024/01/04 08:09:07;;;;;;;5.15;0.60;;;3.00;99.90;;;;;;5112309;27;20496;-92
2024/01/04 08:11:32;;;;;;;4.60;0.90;;;3.10;99.90;;;;;;5112572;27;20403;-91
2024/01/04 08:13:58;;;;;;;4.70;0.67;;;2.90;99.90;;;;;;5122806;27;20400;-91
2024/01/04 08:16:25;;;;;;;5.43;0.93;;;3.10;99.90;;;;;;5133826;27;20401;-91
2024/01/04 08:18:50;;;;;;;6.20;0.60;;;2.90;99.90;;;;;;5132173;27;20405;-91
2024/01/04 08:21:16;;;;;;;5.38;0.60;;;3.00;99.90;;;;;;5133426;27;20899;-91
2024/01/04 08:23:42;;;;;;;5.20;0.93;;;2.90;99.90;;;;;;5113532;27;20403;-92
2024/01/04 08:26:08;;;;;;;7.03;1.15;;;2.90;99.90;;;;;;5112492;27;20414;-91
2024/01/04 08:28:36;;;;;;;4.85;1.00;;;3.20;99.90;;;;;;5111320;27;20427;-91
2024/01/04 08:31:02;;;;;;;7.72;1.45;;;3.30;99.90;;;;;;5114764;27;20401;-91
2024/01/04 08:33:28;;;;;;;7.25;1.08;;;2.90;99.90;;;;;;5132717;27;20460;-92
2024/01/04 08:35:54;;;;;;;5.88;0.90;;;3.20;99.90;;;;;;5130927;27;20393;-90
2024/01/04 08:38:19;;;;;;;6.97;1.10;;;3.50;99.90;;;;;;5133580;27;20448;-90
2024/01/04 08:40:45;;;;;;;5.43;0.98;;;3.10;99.90;;;;;;5148739;27;20497;-90
2024/01/04 08:43:11;;;;;;;5.73;0.90;;;3.30;99.90;;;;;;5150121;27;20417;-92
2024/01/04 08:45:36;;;;;;;6.47;0.83;;;3.40;99.90;;;;;;5149370;27;20721;-90
2024/01/04 08:48:02;;;;;;;7.60;1.10;;;3.20;99.90;;;;;;5112976;27;21132;-90
2024/01/04 08:50:28;;;;;;;5.63;1.20;;;3.20;99.90;;;;;;5126717;27;20412;-90
2024/01/04 08:52:54;;;;;;;6.00;1.25;;;3.50;99.90;;;;;;5131694;27;20397;-90
2024/01/04 08:55:21;;;;;;;6.23;1.40;;;3.60;99.90;;;;;;5133011;27;20395;-91
2024/01/04 08:57:47;;;;;;;5.55;1.20;;;3.50;99.90;;;;;;5130937;27;20397;-90
2024/01/04 09:00:14;;;;;;;7.18;1.52;;;3.90;99.90;;;;;;5133520;27;20393;-90
2024/01/04 09:02:41;;;;;;;4.30;1.10;;;3.30;99.90;;;;;;5131072;27;20397;-91
2024/01/04 09:05:07;;;;;;;6.05;0.93;;;3.80;99.90;;;;;;5132278;27;20401;-91
2024/01/04 09:07:33;;;;;;;5.43;0.90;;;3.70;99.90;;;;;;5131769;27;20401;-90
2024/01/04 09:09:59;;;;;;;5.63;1.03;;;3.80;99.90;;;;;;5149184;27;20425;-91
2024/01/04 09:12:26;;;;;;;5.05;1.30;;;3.90;99.90;;;;;;5132513;27;20428;-91
2024/01/04 09:14:53;;;;;;;9.07;1.60;;;3.90;99.90;;;;;;5131189;27;20397;-90
2024/01/04 09:17:19;;;;;;;5.23;1.40;;;4.10;99.90;;;;;;5132722;27;20467;-91
2024/01/04 09:19:46;;;;;;;5.57;1.30;;;3.70;99.90;;;;;;5131389;27;20393;-90
2024/01/04 09:22:12;;;;;;;7.13;1.00;;;4.10;99.90;;;;;;5132606;27;20396;-89
2024/01/04 09:24:38;;;;;;;5.32;1.00;;;4.40;99.90;;;;;;5131364;27;20999;-90
2024/01/04 09:27:04;;;;;;;5.78;1.10;;;4.30;99.90;;;;;;5114307;27;20422;-89
2024/01/04 09:29:30;;;;;;;5.35;0.77;;;4.30;99.90;;;;;;5111597;27;20823;-89
2024/01/04 09:31:57;;;;;;;5.20;0.50;;;4.40;99.90;;;;;;5093099;27;21239;-90
2024/01/04 09:34:24;;;;;;;4.18;0.60;;;4.40;99.90;;;;;;5111981;27;20894;-90
2024/01/04 09:36:50;;;;;;;6.38;0.85;;;4.70;99.90;;;;;;5109679;27;20407;-90
2024/01/04 09:39:17;;;;;;;3.90;0.80;;;4.80;99.90;;;;;;5111596;27;20750;-91
2024/01/04 09:41:50;;;;;;;6.10;1.02;;;4.50;99.90;;;;;;5127922;27;20405;-90
2024/01/04 09:44:16;;;;;;;4.30;0.60;;;4.80;99.90;;;;;;5111102;27;20478;-91
2024/01/04 09:46:43;;;;;;;4.97;1.00;;;4.60;99.90;;;;;;5111152;27;20495;-91
2024/01/04 09:49:11;;;;;;;6.18;0.90;;;4.70;99.90;;;;;;5110328;27;20476;-90
2024/01/04 09:51:38;;;;;;;5.07;0.80;;;4.70;99.90;;;;;;5111477;27;20443;-90
2024/01/04 09:54:09;;;;;;;6.38;0.95;;;4.70;99.90;;;;;;5110041;27;21156;-90
2024/01/04 09:56:42;;;;;;;5.35;0.90;;;4.70;99.90;;;;;;5111590;27;20403;-90
2024/01/04 09:59:09;;;;;;;6.85;1.23;;;4.70;99.90;;;;;;5135860;27;20405;-91
2024/01/04 10:01:37;;;;;;;7.95;1.65;;;4.70;99.90;;;;;;5131272;27;20468;-89
2024/01/04 10:04:11;;;;;;;2.85;0.90;;;4.80;99.90;;;;;;5131861;27;20400;-90
2024/01/04 10:06:38;;;;;;;4.60;0.80;;;5.00;99.90;;;;;;5130687;27;20416;-93
2024/01/04 10:09:28;;;;;;;3.45;0.60;;;4.70;99.90;;;;;;5132056;27;20959;-91
2024/01/04 10:11:57;;;;;;;3.92;0.50;;;4.80;99.90;;;;;;5130491;27;20420;-91
2024/01/04 10:14:29;;;;;;;3.95;0.93;;;5.00;99.90;;;;;;5131016;27;20451;-90
2024/01/04 10:16:59;;;;;;;4.38;0.88;;;4.90;99.90;;;;;;5131032;27;20443;-91
2024/01/04 10:19:30;;;;;;;7.43;3.58;;;5.20;99.90;;;;;;5130856;27;20880;-90
2024/01/04 10:22:03;;;;;;;7.35;1.17;;;5.10;99.90;;;;;;5131710;27;20484;-90
2024/01/04 10:24:31;;;;;;;4.13;0.40;;;5.20;99.90;;;;;;5130080;27;20853;-90
2024/01/04 10:27:00;;;;;;;3.33;0.50;;;5.30;99.90;;;;;;5117610;27;20403;-89
2024/01/04 10:29:31;;;;;;;3.95;0.50;;;5.80;99.90;;;;;;5109605;27;20411;-90
2024/01/04 10:32:02;;;;;;;1.73;0.30;;;5.60;99.90;;;;;;5110570;27;20383;-90
2024/01/04 10:34:28;;;;;;;3.78;0.40;;;5.40;99.90;;;;;;5110544;28;20961;-90
2024/01/04 10:36:57;;;;;;;3.55;0.40;;;5.50;99.90;;;;;;5109388;28;20403;-90
2024/01/04 10:39:22;;;;;;;3.53;0.30;;;5.50;99.90;;;;;;5128208;27;20765;-91
2024/01/04 10:42:01;;;;;;;3.20;0.30;;;5.60;99.90;;;;;;5109861;28;20510;-90
2024/01/04 10:44:28;;;;;;;3.40;0.40;;;5.60;99.90;;;;;;5119574;27;20914;-90
2024/01/04 10:46:57;;;;;;;5.03;0.43;;;5.70;99.90;;;;;;5132146;27;20480;-89
2024/01/04 10:49:24;;;;;;;4.03;0.40;;;5.80;99.90;;;;;;5134184;27;20417;-92
2024/01/04 10:52:01;;;;;;;4.60;0.40;;;5.80;99.90;;;;;;5135909;27;20974;-91
2024/01/04 10:54:41;;;;;;;3.30;0.20;;;6.10;99.90;;;;;;5133820;27;20457;-90
2024/01/04 10:57:08;;;;;;;3.67;0.40;;;5.90;99.90;;;;;;5135630;27;21182;-90
2024/01/04 10:59:34;;;;;;;3.72;0.40;;;5.90;99.90;;;;;;5134567;27;20472;-90
2024/01/04 11:02:01;;;;;;;2.67;0.50;;;6.00;99.90;;;;;;5129905;27;20438;-91
2024/01/04 11:04:28;;;;;;;3.13;0.40;;;5.90;99.90;;;;;;5114132;27;20446;-90
2024/01/04 11:06:55;;;;;;;1.30;0.20;;;5.90;99.90;;;;;;5113013;27;20399;-91
2024/01/04 11:09:22;;;;;;;3.03;0.20;;;5.90;99.90;;;;;;5114411;27;20999;-91
2024/01/04 11:11:54;;;;;;;2.88;0.20;;;6.10;99.90;;;;;;5113201;27;20971;-90
2024/01/04 11:14:21;;;;;;;3.37;0.23;;;5.80;99.90;;;;;;5114548;27;20460;-90
2024/01/04 11:17:15;;;;;;;2.15;0.30;;;5.80;99.90;;;;;;5113149;27;20410;-91
2024/01/04 11:20:08;;;;;;;4.25;0.20;;;5.80;99.90;;;;;;5130522;27;20417;-90
2024/01/04 11:23:08;;;;;;;2.95;0.30;;;5.80;99.90;;;;;;5114109;27;20407;-89
2024/01/04 11:26:10;;;;;;;4.43;0.30;;;5.90;99.90;;;;;;5113388;27;20470;-91
2024/01/04 11:28:36;;;;;;;1.77;0.30;;;6.00;99.90;;;;;;5129313;27;20426;-90
2024/01/04 11:31:02;;;;;;;4.35;0.30;;;6.20;99.90;;;;;;5114226;27;20810;-91
2024/01/04 11:33:28;;;;;;;2.13;0.25;;;6.00;99.90;;;;;;5144836;27;20385;-91
2024/01/04 11:35:54;;;;;;;3.28;0.30;;;6.10;99.90;;;;;;5134513;27;20887;-91
2024/01/04 11:38:24;;;;;;;2.67;0.32;;;6.30;99.90;;;;;;5132871;27;20392;-93
2024/01/04 11:40:52;;;;;;;1.92;0.20;;;6.10;99.90;;;;;;5133577;27;20411;-91
2024/01/04 11:43:18;;;;;;;2.70;0.30;;;6.20;99.90;;;;;;5133714;27;20410;-91
2024/01/04 11:45:45;;;;;;;1.88;0.32;;;6.30;99.90;;;;;;5150189;27;20848;-92
2024/01/04 11:48:11;;;;;;;4.15;0.40;;;6.20;99.90;;;;;;5134216;27;20409;-90
2024/01/04 11:50:47;;;;;;;2.53;0.40;;;6.50;99.90;;;;;;5132201;27;20403;-91
2024/01/04 11:53:14;;;;;;;2.22;0.43;;;6.50;99.90;;;;;;5133998;27;20668;-91
2024/01/04 11:55:41;;;;;;;3.17;0.40;;;6.60;99.90;;;;;;5133050;27;20456;-91
2024/01/04 11:58:11;;;;;;;2.45;0.30;;;6.60;99.90;;;;;;5132428;27;20396;-90
2024/01/04 12:00:39;;;;;;;3.80;0.40;;;6.80;99.90;;;;;;5133174;27;20416;-91
2024/01/04 12:03:16;;;;;;;2.70;0.50;;;6.60;99.90;;;;;;5132211;27;20404;-92
2024/01/04 12:05:54;;;;;;;2.80;0.30;;;6.90;99.90;;;;;;5133899;27;20412;-91
2024/01/04 12:08:32;;;;;;;2.55;0.43;;;6.60;99.90;;;;;;5109676;27;20482;-91
2024/01/04 12:11:00;;;;;;;2.17;0.40;;;6.60;99.90;;;;;;5109105;27;20407;-91
2024/01/04 12:13:26;;;;;;;3.95;0.20;;;6.60;99.90;;;;;;5128883;27;20410;-89
2024/01/04 12:15:52;;;;;;;2.28;0.30;;;6.90;99.90;;;;;;5111219;27;20410;-90
2024/01/04 12:18:18;;;;;;;1.60;0.20;;;6.60;99.90;;;;;;5112366;27;20406;-90
2024/01/04 12:20:46;;;;;;;3.83;0.50;;;6.70;99.90;;;;;;5111089;27;20390;-91
2024/01/04 12:23:12;;;;;;;2.03;0.20;;;6.50;99.90;;;;;;5114093;27;20817;-90
2024/01/04 12:25:39;;;;;;;4.60;0.20;;;6.50;99.90;;;;;;5110884;27;20571;-91
2024/01/04 12:28:09;;;;;;;4.10;0.40;;;6.80;99.90;;;;;;5112680;27;20402;-90
2024/01/04 12:30:39;;;;;;;3.38;0.40;;;6.60;99.90;;;;;;5111710;27;20921;-91
2024/01/04 12:33:06;;;;;;;2.63;0.90;;;6.60;99.90;;;;;;5094512;27;20402;-91
2024/01/04 12:35:32;;;;;;;2.95;0.40;;;6.70;99.90;;;;;;5112813;27;20394;-90
2024/01/04 12:38:22;;;;;;;2.13;0.30;;;6.80;99.90;;;;;;5109323;27;20395;-91
2024/01/04 12:40:47;;;;;;;3.28;0.40;;;6.70;99.90;;;;;;5113175;27;20760;-89
2024/01/04 12:43:13;;;;;;;2.38;0.45;;;6.70;99.90;;;;;;5111822;27;20482;-91
2024/01/04 12:45:39;;;;;;;2.70;0.30;;;6.70;99.90;;;;;;5124891;27;20416;-91
2024/01/04 12:48:07;;;;;;;2.53;0.25;;;6.90;99.90;;;;;;5132650;27;20401;-91
2024/01/04 12:50:37;;;;;;;4.03;0.50;;;6.70;99.90;;;;;;5132119;27;20404;-91
2024/01/04 12:53:04;;;;;;;3.35;0.40;;;6.70;99.90;;;;;;5132723;27;20924;-90
2024/01/04 12:55:33;;;;;;;4.25;0.30;;;6.80;99.90;;;;;;5131661;27;20480;-89
2024/01/04 12:57:59;;;;;;;2.63;0.30;;;6.60;99.90;;;;;;5133407;27;20405;-91